createdAt,value
2023-01-17T00:02:20.420Z,23.02
2023-01-17T00:05:06.358Z,22.40
2023-01-17T00:07:56.762Z,22.00
2023-01-17T00:10:27.333Z,21.20
2023-01-17T00:13:00.694Z,20.98
2023-01-17T00:15:30.788Z,21.23
2023-01-17T00:17:58.507Z,19.23
2023-01-17T00:20:46.460Z,19.95
2023-01-17T00:23:37.372Z,18.98
2023-01-17T00:26:10.273Z,18.92
2023-01-17T00:28:39.835Z,19.92
2023-01-17T00:31:09.561Z,18.23
2023-01-17T00:33:37.240Z,18.33
2023-01-17T00:36:05.856Z,19.33
2023-01-17T00:38:35.714Z,19.15
2023-01-17T00:41:11.782Z,19.00
2023-01-17T00:43:57.875Z,19.55
2023-01-17T00:46:43.783Z,19.00
2023-01-17T00:49:30.020Z,18.55
2023-01-17T00:52:15.966Z,17.40
2023-01-17T00:55:01.977Z,18.23
2023-01-17T00:57:47.953Z,18.35
2023-01-17T01:00:35.557Z,18.17
2023-01-17T01:03:30.642Z,17.70
2023-01-17T01:06:16.682Z,18.52
2023-01-17T01:09:02.573Z,17.70
2023-01-17T01:11:48.788Z,18.25
2023-01-17T01:14:34.632Z,18.30
2023-01-17T01:17:20.279Z,17.45
2023-01-17T01:20:06.186Z,17.73
2023-01-17T01:22:52.024Z,17.77
2023-01-17T01:25:37.743Z,17.70
2023-01-17T01:28:26.170Z,17.55
2023-01-17T01:31:11.805Z,17.45
2023-01-17T01:33:39.128Z,16.48
2023-01-17T01:36:08.641Z,16.75
2023-01-17T01:38:36.076Z,17.92
2023-01-17T01:41:03.920Z,18.48
2023-01-17T01:43:42.966Z,15.90
2023-01-17T01:46:14.078Z,16.07
2023-01-17T01:48:50.274Z,15.90
2023-01-17T01:51:29.860Z,14.98
2023-01-17T01:54:12.279Z,16.77
2023-01-17T01:56:40.740Z,15.45
2023-01-17T01:59:12.423Z,15.40
2023-01-17T02:01:39.723Z,15.68
2023-01-17T02:04:11.559Z,15.27
2023-01-17T02:06:43.831Z,14.38
2023-01-17T02:09:12.513Z,14.20
2023-01-17T02:11:40.933Z,14.35
2023-01-17T02:14:09.055Z,12.82
2023-01-17T02:16:54.669Z,13.45
2023-01-17T02:19:30.957Z,15.10
2023-01-17T02:22:19.378Z,14.43
2023-01-17T02:25:29.496Z,14.23
2023-01-17T02:28:04.222Z,14.60
2023-01-17T02:30:37.164Z,15.93
2023-01-17T02:33:13.443Z,16.13
2023-01-17T02:35:59.246Z,17.75
2023-01-17T02:38:39.919Z,17.58
2023-01-17T02:41:13.634Z,18.23
2023-01-17T02:43:41.517Z,16.80
2023-01-17T02:46:09.923Z,14.32
2023-01-17T02:48:38.689Z,13.95
2023-01-17T02:51:37.318Z,12.48
2023-01-17T02:54:25.224Z,10.32
2023-01-17T02:56:52.417Z,9.80
2023-01-17T02:59:58.010Z,8.55
2023-01-17T03:02:33.918Z,9.43
2023-01-17T03:05:10.604Z,9.43
2023-01-17T03:07:39.987Z,9.13
2023-01-17T03:10:09.378Z,9.07
2023-01-17T03:12:39.844Z,8.77
2023-01-17T03:15:15.647Z,7.85
2023-01-17T03:17:51.588Z,8.63
2023-01-17T03:20:19.037Z,8.27
2023-01-17T03:22:46.284Z,8.43
2023-01-17T03:25:13.548Z,8.18
2023-01-17T03:27:40.852Z,7.45
2023-01-17T03:30:08.871Z,9.77
2023-01-17T03:32:36.215Z,9.77
2023-01-17T03:35:03.627Z,8.05
2023-01-17T03:37:30.915Z,7.78
2023-01-17T03:39:58.136Z,8.23
2023-01-17T03:42:25.330Z,8.52
2023-01-17T03:44:52.526Z,7.82
2023-01-17T03:47:19.800Z,7.72
2023-01-17T03:49:47.050Z,10.32
2023-01-17T03:52:14.302Z,17.92
2023-01-17T03:54:41.660Z,21.10
2023-01-17T03:57:09.829Z,21.00
2023-01-17T03:59:37.151Z,20.67
2023-01-17T04:02:04.607Z,17.83
2023-01-17T04:04:32.098Z,19.65
2023-01-17T04:06:59.462Z,16.85
2023-01-17T04:09:26.713Z,15.25
2023-01-17T04:11:54.233Z,13.63
2023-01-17T04:14:21.483Z,13.23
2023-01-17T04:16:48.950Z,12.32
2023-01-17T04:19:16.367Z,11.43
2023-01-17T04:21:43.629Z,11.68
2023-01-17T04:24:10.862Z,13.05
2023-01-17T04:26:38.109Z,12.35
2023-01-17T04:29:05.459Z,13.00
2023-01-17T04:31:32.805Z,12.82
2023-01-17T04:34:00.127Z,12.35
2023-01-17T04:36:27.348Z,12.23
2023-01-17T04:38:54.589Z,11.10
2023-01-17T04:41:21.930Z,10.15
2023-01-17T04:43:49.174Z,10.30
2023-01-17T04:46:16.486Z,10.35
2023-01-17T04:48:43.728Z,10.85
2023-01-17T04:51:11.036Z,9.80
2023-01-17T04:53:38.229Z,11.02
2023-01-17T04:56:05.663Z,9.88
2023-01-17T04:58:33.488Z,11.40
2023-01-17T05:01:05.384Z,10.32
2023-01-17T05:03:33.861Z,9.82
2023-01-17T05:06:02.058Z,11.00
2023-01-17T05:08:29.363Z,11.20
2023-01-17T05:10:56.618Z,12.20
2023-01-17T05:13:23.947Z,11.38
2023-01-17T05:15:51.415Z,11.88
2023-01-17T05:18:19.234Z,12.10
2023-01-17T05:20:47.067Z,11.65
2023-01-17T05:23:14.302Z,10.93
2023-01-17T05:25:44.909Z,11.48
2023-01-17T05:28:13.251Z,11.60
2023-01-17T05:30:41.334Z,10.63
2023-01-17T05:33:10.324Z,10.88
2023-01-17T05:35:38.260Z,11.27
2023-01-17T05:38:05.627Z,11.95
2023-01-17T05:40:34.018Z,12.05
2023-01-17T05:43:03.341Z,10.93
2023-01-17T05:45:32.353Z,12.38
2023-01-17T05:47:59.727Z,11.95
2023-01-17T05:50:30.944Z,12.35
2023-01-17T05:53:03.721Z,11.93
2023-01-17T05:55:31.836Z,13.07
2023-01-17T05:57:59.532Z,12.95
2023-01-17T06:00:27.183Z,12.85
2023-01-17T06:02:55.853Z,13.15
2023-01-17T06:05:23.498Z,14.55
2023-01-17T06:07:51.033Z,13.05
2023-01-17T06:10:20.797Z,13.07
2023-01-17T06:12:48.958Z,13.85
2023-01-17T06:15:17.973Z,12.57
2023-01-17T06:17:45.219Z,12.77
2023-01-17T06:20:13.307Z,12.63
2023-01-17T06:22:40.579Z,13.05
2023-01-17T06:25:08.376Z,12.68
2023-01-17T06:27:35.617Z,11.63
2023-01-17T06:30:03.013Z,11.60
2023-01-17T06:32:30.284Z,11.85
2023-01-17T06:34:57.614Z,11.45
2023-01-17T06:37:24.881Z,10.82
2023-01-17T06:39:52.097Z,11.95
2023-01-17T06:42:19.430Z,11.93
2023-01-17T06:44:46.889Z,11.98
2023-01-17T06:47:14.146Z,11.18
2023-01-17T06:49:41.407Z,11.15
2023-01-17T06:52:08.663Z,10.68
2023-01-17T06:54:35.861Z,10.25
2023-01-17T06:57:03.243Z,10.77
2023-01-17T06:59:30.724Z,10.55
2023-01-17T07:01:58.004Z,10.73
2023-01-17T07:04:25.317Z,9.90
2023-01-17T07:06:52.544Z,9.48
2023-01-17T07:09:19.878Z,8.52
2023-01-17T07:11:47.178Z,8.90
2023-01-17T07:14:14.701Z,9.10
2023-01-17T07:16:46.008Z,9.38
2023-01-17T07:19:13.483Z,7.78
2023-01-17T07:21:40.949Z,7.47
2023-01-17T07:24:09.132Z,7.25
2023-01-17T07:26:38.094Z,7.82
2023-01-17T07:29:05.655Z,8.07
2023-01-17T07:31:35.419Z,8.68
2023-01-17T07:34:03.175Z,8.48
2023-01-17T07:36:30.433Z,7.88
2023-01-17T07:38:57.750Z,7.88
2023-01-17T07:41:25.397Z,6.85
2023-01-17T07:43:53.507Z,7.80
2023-01-17T07:46:21.665Z,7.10
2023-01-17T07:48:48.978Z,6.75
2023-01-17T07:51:17.897Z,6.40
2023-01-17T07:53:45.101Z,6.60
2023-01-17T07:56:12.400Z,6.35
2023-01-17T07:58:39.806Z,6.43
2023-01-17T08:01:12.355Z,5.50
2023-01-17T08:03:40.311Z,5.55
2023-01-17T08:06:19.208Z,5.70
2023-01-17T08:08:47.025Z,5.22
2023-01-17T08:11:14.528Z,4.57
2023-01-17T08:13:42.012Z,4.78
2023-01-17T08:16:10.488Z,4.65
2023-01-17T08:18:37.899Z,4.25
2023-01-17T08:21:07.425Z,4.90
2023-01-17T08:23:34.703Z,4.70
2023-01-17T08:26:02.085Z,4.70
2023-01-17T08:28:29.391Z,4.68
2023-01-17T08:30:56.776Z,4.40
2023-01-17T08:33:24.028Z,4.30
2023-01-17T08:35:55.362Z,4.10
2023-01-17T08:38:23.851Z,4.65
2023-01-17T08:40:51.153Z,4.40
2023-01-17T08:43:18.420Z,4.15
2023-01-17T08:45:47.152Z,4.70
2023-01-17T08:48:15.184Z,4.72
2023-01-17T08:50:42.408Z,4.70
2023-01-17T08:53:09.653Z,5.10
2023-01-17T08:55:40.928Z,5.13
2023-01-17T08:58:08.466Z,4.55
2023-01-17T09:00:35.729Z,5.40
2023-01-17T09:03:03.040Z,4.63
2023-01-17T09:05:30.313Z,3.90
2023-01-17T09:07:57.576Z,4.05
2023-01-17T09:10:25.040Z,4.00
2023-01-17T09:12:52.464Z,3.45
2023-01-17T09:15:20.310Z,3.55
2023-01-17T09:17:47.815Z,4.20
2023-01-17T09:20:15.205Z,4.20
2023-01-17T09:22:42.548Z,3.72
2023-01-17T09:25:10.033Z,4.07
2023-01-17T09:27:37.298Z,7.13
2023-01-17T09:30:05.080Z,6.05
2023-01-17T09:32:32.387Z,3.47
2023-01-17T09:35:00.787Z,3.90
2023-01-17T09:37:28.314Z,3.35
2023-01-17T09:39:55.573Z,3.30
2023-01-17T09:42:39.101Z,3.30
2023-01-17T09:45:16.714Z,4.07
2023-01-17T09:47:47.044Z,4.38
2023-01-17T09:50:40.544Z,3.30
2023-01-17T09:53:15.721Z,3.70
2023-01-17T09:55:52.126Z,3.45
2023-01-17T09:59:02.503Z,3.92
2023-01-17T10:02:14.749Z,3.60
2023-01-17T10:04:45.214Z,3.85
2023-01-17T10:07:37.957Z,4.68
2023-01-17T10:10:28.427Z,3.83
2023-01-17T10:13:05.661Z,4.20
2023-01-17T10:16:26.757Z,4.43
2023-01-17T10:19:35.267Z,4.55
2023-01-17T10:22:17.688Z,3.95
2023-01-17T10:25:23.219Z,4.45
2023-01-17T10:27:59.090Z,4.70
2023-01-17T10:30:30.674Z,3.90
2023-01-17T10:33:00.792Z,3.90
2023-01-17T10:35:37.017Z,3.38
2023-01-17T10:38:10.599Z,3.70
2023-01-17T10:40:50.437Z,4.55
2023-01-17T10:43:50.031Z,7.10
2023-01-17T10:46:22.851Z,7.13
2023-01-17T10:48:52.619Z,3.30
2023-01-17T10:51:43.976Z,2.90
2023-01-17T10:54:28.317Z,4.60
2023-01-17T10:56:55.710Z,5.20
2023-01-17T10:59:31.861Z,3.30
2023-01-17T11:02:00.243Z,3.13
2023-01-17T11:04:40.235Z,3.50
2023-01-17T11:07:23.077Z,4.40
2023-01-17T11:09:53.520Z,3.40
2023-01-17T11:12:38.720Z,4.18
2023-01-17T11:15:17.924Z,4.03
2023-01-17T11:17:52.968Z,3.70
2023-01-17T11:20:29.383Z,5.70
2023-01-17T11:23:18.209Z,5.50
2023-01-17T11:25:52.301Z,7.22
2023-01-17T11:28:21.460Z,4.63
2023-01-17T11:31:09.323Z,4.57
2023-01-17T11:33:49.169Z,5.20
2023-01-17T11:39:14.789Z,6.50
2023-01-17T11:41:42.254Z,5.68
2023-01-17T11:44:23.800Z,6.60
2023-01-17T11:47:17.141Z,3.42
2023-01-17T11:49:47.201Z,5.80
2023-01-17T11:52:34.540Z,5.38
2023-01-17T11:55:02.045Z,5.25
2023-01-17T11:57:32.914Z,5.30
2023-01-17T12:00:23.828Z,4.60
2023-01-17T12:03:15.256Z,5.55
2023-01-17T12:06:01.321Z,5.30
2023-01-17T12:08:51.296Z,5.05
2023-01-17T12:11:25.223Z,4.18
2023-01-17T12:14:22.798Z,4.35
2023-01-17T12:17:08.841Z,7.68
2023-01-17T12:20:04.971Z,5.35
2023-01-17T12:22:59.889Z,4.40
2023-01-17T12:25:29.296Z,5.15
2023-01-17T12:28:17.644Z,5.10
2023-01-17T12:31:22.854Z,5.38
2023-01-17T12:33:57.449Z,4.80
2023-01-17T12:36:35.914Z,6.45
2023-01-17T12:39:11.817Z,7.53
2023-01-17T12:41:53.245Z,7.45
2023-01-17T12:44:32.157Z,7.50
2023-01-17T12:47:04.257Z,7.45
2023-01-17T12:50:14.653Z,6.55
2023-01-17T12:53:08.468Z,7.65
2023-01-17T12:55:50.976Z,14.68
2023-01-17T12:58:25.571Z,12.40
2023-01-17T13:01:07.513Z,15.55
2023-01-17T13:04:07.375Z,16.13
2023-01-17T13:09:23.069Z,9.70
2023-01-17T13:12:05.073Z,8.13
2023-01-17T13:14:33.010Z,6.30
2023-01-17T13:17:09.357Z,6.47
2023-01-17T13:19:36.622Z,6.93
2023-01-17T13:22:09.135Z,6.80
2023-01-17T13:24:43.101Z,6.55
2023-01-17T13:27:30.961Z,7.93
2023-01-17T13:30:10.719Z,15.10
2023-01-17T13:32:56.297Z,10.15
2023-01-17T13:35:39.937Z,8.70
2023-01-17T13:38:25.835Z,10.43
2023-01-17T13:40:56.087Z,11.20
2023-01-17T13:43:26.232Z,14.07
2023-01-17T13:45:57.012Z,13.45
2023-01-17T13:48:40.688Z,13.80
2023-01-17T13:51:09.688Z,14.05
2023-01-17T13:53:37.009Z,13.20
2023-01-17T13:56:10.329Z,10.77
2023-01-17T13:58:57.954Z,10.90
2023-01-17T14:01:25.322Z,8.93
2023-01-17T14:03:52.673Z,10.45
2023-01-17T14:06:40.595Z,13.20
2023-01-17T14:09:07.771Z,13.52
2023-01-17T14:12:06.369Z,11.23
2023-01-17T14:14:39.800Z,9.45
2023-01-17T14:17:16.187Z,8.32
2023-01-17T14:19:48.405Z,8.52
2023-01-17T14:22:18.665Z,9.85
2023-01-17T14:25:19.342Z,8.07
2023-01-17T14:27:53.665Z,7.55
2023-01-17T14:30:25.940Z,8.02
2023-01-17T14:32:59.173Z,7.28
2023-01-17T14:35:54.713Z,7.47
2023-01-17T14:38:27.796Z,8.45
2023-01-17T14:40:56.501Z,11.05
2023-01-17T14:43:26.569Z,8.80
2023-01-17T14:46:07.146Z,7.85
2023-01-17T14:48:34.522Z,7.78
2023-01-17T14:51:11.797Z,9.75
2023-01-17T14:53:39.114Z,9.73
2023-01-17T14:56:15.153Z,10.95
2023-01-17T14:58:42.830Z,11.15
2023-01-17T15:01:18.593Z,11.45
2023-01-17T15:03:51.424Z,12.32
2023-01-17T15:06:21.769Z,12.82
2023-01-17T15:08:50.187Z,17.70
2023-01-17T15:11:25.393Z,22.80
2023-01-17T15:13:57.523Z,17.73
2023-01-17T15:16:29.670Z,14.75
2023-01-17T15:18:57.588Z,12.50
2023-01-17T15:21:28.065Z,12.07
2023-01-17T15:23:59.981Z,11.00
2023-01-17T15:26:32.160Z,11.02
2023-01-17T15:29:06.108Z,12.43
2023-01-17T15:31:45.691Z,11.05
2023-01-17T15:34:22.670Z,13.32
2023-01-17T15:36:50.519Z,12.10
2023-01-17T15:39:24.448Z,12.60
2023-01-17T15:41:53.598Z,12.48
2023-01-17T15:44:47.973Z,13.18
2023-01-17T15:47:28.357Z,11.82
2023-01-17T15:49:56.432Z,19.90
2023-01-17T15:52:23.706Z,14.95
2023-01-17T15:54:54.617Z,14.35
2023-01-17T15:57:38.877Z,11.85
2023-01-17T16:00:14.828Z,14.05
2023-01-17T16:02:55.204Z,11.00
2023-01-17T16:05:23.235Z,10.48
2023-01-17T16:07:58.253Z,10.88
2023-01-17T16:10:28.778Z,10.63
2023-01-17T16:12:58.891Z,11.57
2023-01-17T16:15:27.312Z,10.60
2023-01-17T16:18:01.863Z,10.30
2023-01-17T16:20:32.981Z,10.43
2023-01-17T16:23:00.598Z,10.50
2023-01-17T16:25:32.479Z,9.88
2023-01-17T16:28:00.299Z,9.93
2023-01-17T16:30:28.665Z,10.10
2023-01-17T16:32:56.956Z,10.25
2023-01-17T16:35:30.092Z,10.02
2023-01-17T16:37:58.669Z,9.48
2023-01-17T16:40:29.063Z,9.38
2023-01-17T16:42:57.196Z,8.82
2023-01-17T16:45:25.308Z,9.60
2023-01-17T16:47:54.072Z,9.68
2023-01-17T16:50:25.267Z,10.45
2023-01-17T16:52:54.296Z,10.18
2023-01-17T16:55:24.524Z,11.67
2023-01-17T16:57:54.236Z,11.65
2023-01-17T17:00:22.732Z,12.65
2023-01-17T17:02:51.051Z,12.15
2023-01-17T17:05:18.999Z,10.70
2023-01-17T17:07:50.809Z,11.18
2023-01-17T17:10:21.691Z,11.48
2023-01-17T17:12:48.886Z,12.35
2023-01-17T17:15:16.190Z,10.80
2023-01-17T17:17:43.627Z,10.90
2023-01-17T17:20:13.135Z,10.40
2023-01-17T17:22:45.234Z,11.80
2023-01-17T17:25:13.507Z,11.68
2023-01-17T17:27:40.719Z,11.75
2023-01-17T17:30:09.396Z,11.32
2023-01-17T17:32:36.625Z,11.80
2023-01-17T17:35:04.181Z,9.57
2023-01-17T17:37:31.461Z,9.95
2023-01-17T17:39:58.740Z,8.85
2023-01-17T17:42:26.408Z,7.78
2023-01-17T17:44:53.738Z,8.05
2023-01-17T17:47:21.081Z,8.10
2023-01-17T17:49:48.272Z,7.65
2023-01-17T17:52:15.522Z,7.30
2023-01-17T17:54:42.797Z,7.55
2023-01-17T17:57:10.092Z,7.03
2023-01-17T17:59:37.426Z,7.32
2023-01-17T18:02:06.719Z,6.78
2023-01-17T18:04:34.038Z,6.97
2023-01-17T18:07:01.330Z,7.47
2023-01-17T18:09:28.500Z,7.03
2023-01-17T18:11:57.351Z,8.00
2023-01-17T18:14:24.720Z,8.30
2023-01-17T18:16:52.192Z,8.30
2023-01-17T18:19:28.532Z,9.00
2023-01-17T18:21:55.959Z,9.10
2023-01-17T18:24:24.970Z,9.38
2023-01-17T18:26:54.277Z,7.97
2023-01-17T18:29:22.561Z,8.50
2023-01-17T18:31:51.575Z,10.07
2023-01-17T18:34:29.402Z,9.45
2023-01-17T18:36:57.791Z,9.65
2023-01-17T18:39:27.535Z,9.30
2023-01-17T18:41:55.246Z,9.50
2023-01-17T18:44:22.794Z,9.60
2023-01-17T18:46:52.538Z,9.32
2023-01-17T18:49:19.917Z,9.35
2023-01-17T18:51:50.567Z,8.93
2023-01-17T18:54:20.103Z,10.35
2023-01-17T18:56:48.191Z,9.73
2023-01-17T18:59:18.458Z,9.32
2023-01-17T19:01:46.796Z,9.95
2023-01-17T19:04:17.383Z,10.18
2023-01-17T19:06:47.338Z,9.60
2023-01-17T19:11:44.574Z,9.20
2023-01-17T19:14:12.833Z,9.95
2023-01-17T19:16:41.569Z,10.38
2023-01-17T19:19:12.172Z,10.23
2023-01-17T19:21:39.739Z,10.63
2023-01-17T19:24:07.529Z,11.63
2023-01-17T19:26:34.761Z,12.77
2023-01-17T19:29:05.190Z,12.00
2023-01-17T19:31:39.331Z,12.35
2023-01-17T19:34:06.838Z,10.70
2023-01-17T19:36:35.681Z,10.73
2023-01-17T19:39:06.261Z,10.07
2023-01-17T19:41:36.075Z,11.13
2023-01-17T19:44:08.614Z,11.98
2023-01-17T19:46:36.697Z,13.00
2023-01-17T19:49:06.457Z,11.05
2023-01-17T19:51:34.411Z,10.98
2023-01-17T19:54:04.096Z,11.85
2023-01-17T19:56:31.751Z,10.90
2023-01-17T19:59:01.753Z,11.40
2023-01-17T20:01:32.185Z,10.57
2023-01-17T20:04:01.169Z,11.93
2023-01-17T20:06:31.591Z,13.85
2023-01-17T20:08:58.918Z,21.63
2023-01-17T20:11:27.847Z,22.15
2023-01-17T20:13:57.372Z,32.45
2023-01-17T20:16:26.501Z,15.68
2023-01-17T20:18:53.777Z,14.95
2023-01-17T20:21:26.425Z,14.32
2023-01-17T20:23:55.612Z,12.70
2023-01-17T20:26:34.394Z,12.00
2023-01-17T20:29:13.478Z,10.75
2023-01-17T20:31:42.760Z,11.02
2023-01-17T20:34:13.181Z,10.10
2023-01-17T20:36:42.151Z,10.30
2023-01-17T20:39:12.474Z,9.87
2023-01-17T20:41:42.880Z,9.40
2023-01-17T20:44:13.918Z,8.90
2023-01-17T20:46:41.546Z,8.90
2023-01-17T20:49:15.626Z,9.70
2023-01-17T20:51:44.617Z,11.15
2023-01-17T20:54:14.508Z,9.93
2023-01-17T20:59:13.284Z,9.70
2023-01-17T21:01:41.833Z,10.82
2023-01-17T21:04:10.274Z,8.77
2023-01-17T21:06:39.729Z,10.90
2023-01-17T21:09:08.881Z,10.15
2023-01-17T21:11:37.675Z,8.82
2023-01-17T21:14:06.515Z,11.20
2023-01-17T21:16:35.096Z,13.82
2023-01-17T21:19:02.936Z,10.85
2023-01-17T21:21:30.564Z,9.02
2023-01-17T21:23:59.432Z,8.38
2023-01-17T21:26:28.811Z,8.57
2023-01-17T21:28:56.561Z,8.40
2023-01-17T21:31:29.989Z,8.43
2023-01-17T21:34:03.716Z,8.50
2023-01-17T21:36:34.092Z,8.88
2023-01-17T21:39:04.985Z,7.65
2023-01-17T21:41:34.793Z,7.53
2023-01-17T21:44:05.019Z,7.45
2023-01-17T21:46:32.309Z,7.50
2023-01-17T21:48:59.617Z,7.72
2023-01-17T21:51:46.819Z,7.30
2023-01-17T21:54:14.205Z,7.28
2023-01-17T21:57:00.112Z,7.13
2023-01-17T21:59:27.402Z,6.53
2023-01-17T22:01:54.756Z,6.50
2023-01-17T22:04:22.115Z,6.60
2023-01-17T22:06:49.319Z,6.60
2023-01-17T22:09:16.693Z,6.85
2023-01-17T22:11:44.005Z,6.18
2023-01-17T22:14:11.389Z,6.68
2023-01-17T22:16:38.653Z,7.45
2023-01-17T22:19:06.020Z,7.20
2023-01-17T22:21:33.254Z,6.57
2023-01-17T22:24:00.575Z,6.57
2023-01-17T22:26:31.561Z,6.55
2023-01-17T22:29:02.592Z,6.95
2023-01-17T22:31:30.665Z,6.60
2023-01-17T22:34:02.118Z,6.70
2023-01-17T22:36:31.665Z,6.50
2023-01-17T22:38:59.062Z,6.10
2023-01-17T22:41:32.933Z,4.93
2023-01-17T22:44:05.521Z,5.72
2023-01-17T22:46:35.559Z,4.85
2023-01-17T22:49:03.486Z,4.25
2023-01-17T22:51:30.760Z,3.67
2023-01-17T22:54:00.062Z,3.45
2023-01-17T22:56:30.127Z,2.97
2023-01-17T22:59:01.337Z,2.63
2023-01-17T23:01:31.422Z,2.75
2023-01-17T23:04:04.180Z,2.55
2023-01-17T23:06:34.466Z,2.28
2023-01-17T23:09:05.762Z,2.10
2023-01-17T23:11:49.804Z,2.08
2023-01-17T23:14:22.287Z,2.20
2023-01-17T23:17:09.741Z,2.45
2023-01-17T23:19:38.386Z,2.38
2023-01-17T23:22:21.721Z,2.13
2023-01-17T23:24:48.988Z,2.10
2023-01-17T23:27:44.257Z,2.42
2023-01-17T23:30:16.236Z,2.30
2023-01-17T23:32:47.295Z,2.67
2023-01-17T23:35:15.462Z,2.30
2023-01-17T23:38:01.287Z,2.70
2023-01-17T23:40:28.605Z,2.63
2023-01-17T23:43:14.465Z,2.97
2023-01-17T23:45:41.835Z,2.50
2023-01-17T23:48:10.114Z,2.60
2023-01-17T23:50:39.250Z,2.63
2023-01-17T23:53:07.257Z,2.58
2023-01-17T23:55:45.741Z,2.70
2023-01-17T23:58:13.122Z,2.50
